createdAt,value
2022-12-12T00:02:06.581Z,89.80
2022-12-12T00:04:33.300Z,89.90
2022-12-12T00:07:00.091Z,89.70
2022-12-12T00:09:26.827Z,89.80
2022-12-12T00:11:53.536Z,90.10
2022-12-12T00:14:20.303Z,90.10
2022-12-12T00:16:47.049Z,90.20
2022-12-12T00:19:13.759Z,90.10
2022-12-12T00:21:40.518Z,90.10
2022-12-12T00:24:07.705Z,90.30
2022-12-12T00:26:35.655Z,90.20
2022-12-12T00:29:05.091Z,90.20
2022-12-12T00:31:32.427Z,90.20
2022-12-12T00:33:59.432Z,90.60
2022-12-12T00:36:29.187Z,90.30
2022-12-12T00:38:56.549Z,90.30
2022-12-12T00:41:23.987Z,90.30
2022-12-12T00:43:51.105Z,90.20
2022-12-12T00:46:20.832Z,90.60
2022-12-12T00:48:47.989Z,90.70
2022-12-12T00:51:18.177Z,90.30
2022-12-12T00:53:45.253Z,90.00
2022-12-12T00:56:12.016Z,90.10
2022-12-12T00:58:38.740Z,90.40
2022-12-12T01:01:10.607Z,90.70
2022-12-12T01:03:39.062Z,90.30
2022-12-12T01:06:06.811Z,90.50
2022-12-12T01:08:33.680Z,90.60
2022-12-12T01:11:00.546Z,90.40
2022-12-12T01:13:28.238Z,90.50
2022-12-12T01:15:55.113Z,90.60
2022-12-12T01:18:22.008Z,90.80
2022-12-12T01:20:48.870Z,90.90
2022-12-12T01:23:15.863Z,90.80
2022-12-12T01:25:42.704Z,90.90
2022-12-12T01:28:09.900Z,90.80
2022-12-12T01:30:37.223Z,90.90
2022-12-12T01:33:04.217Z,91.00
2022-12-12T01:35:33.253Z,91.10
2022-12-12T01:38:00.164Z,91.20
2022-12-12T01:40:29.351Z,90.70
2022-12-12T01:42:56.115Z,90.10
2022-12-12T01:45:53.995Z,88.50
2022-12-12T01:48:23.908Z,88.20
2022-12-12T01:50:51.524Z,88.50
2022-12-12T01:53:20.105Z,88.80
2022-12-12T01:55:49.493Z,88.90
2022-12-12T01:58:16.917Z,88.60
2022-12-12T02:00:44.412Z,88.30
2022-12-12T02:03:11.495Z,88.00
2022-12-12T02:05:51.597Z,87.80
2022-12-12T02:08:21.094Z,87.50
2022-12-12T02:10:48.228Z,86.10
2022-12-12T02:13:28.247Z,83.90
2022-12-12T02:16:22.117Z,84.10
2022-12-12T02:18:54.743Z,84.10
2022-12-12T02:21:54.643Z,83.40
2022-12-12T02:24:39.477Z,83.90
2022-12-12T02:27:28.772Z,84.40
2022-12-12T02:30:17.621Z,84.40
2022-12-12T02:33:15.119Z,84.10
2022-12-12T02:35:56.108Z,84.50
2022-12-12T02:38:30.625Z,85.10
2022-12-12T02:41:23.588Z,85.00
2022-12-12T02:44:12.343Z,85.00
2022-12-12T02:47:04.080Z,84.30
2022-12-12T02:49:45.353Z,83.90
2022-12-12T02:52:12.781Z,84.30
2022-12-12T02:54:39.780Z,84.10
2022-12-12T02:57:18.320Z,84.20
2022-12-12T02:59:58.884Z,84.60
2022-12-12T03:02:34.713Z,84.30
2022-12-12T03:05:49.689Z,84.00
2022-12-12T03:08:40.911Z,83.80
2022-12-12T03:11:14.556Z,83.80
2022-12-12T03:13:58.569Z,84.30
2022-12-12T03:16:30.024Z,84.70
2022-12-12T03:19:26.564Z,84.40
2022-12-12T03:21:56.776Z,84.40
2022-12-12T03:24:34.821Z,84.40
2022-12-12T03:27:39.203Z,84.60
2022-12-12T03:30:11.436Z,84.00
2022-12-12T03:33:06.568Z,84.40
2022-12-12T03:35:42.627Z,84.60
2022-12-12T03:38:22.079Z,85.40
2022-12-12T03:40:56.409Z,85.20
2022-12-12T03:43:37.473Z,85.40
2022-12-12T03:46:16.987Z,85.50
2022-12-12T03:48:56.212Z,85.30
2022-12-12T03:51:38.985Z,85.30
2022-12-12T03:54:08.237Z,85.50
2022-12-12T03:56:43.179Z,85.00
2022-12-12T03:59:14.442Z,85.00
2022-12-12T04:01:49.352Z,84.60
2022-12-12T04:04:27.423Z,84.70
2022-12-12T04:07:00.184Z,85.00
2022-12-12T04:09:45.957Z,85.30
2022-12-12T04:12:57.240Z,85.60
2022-12-12T04:15:34.749Z,85.90
2022-12-12T04:18:19.856Z,86.40
2022-12-12T04:21:39.712Z,86.30
2022-12-12T04:24:20.115Z,86.30
2022-12-12T04:27:02.402Z,86.20
2022-12-12T04:29:40.433Z,85.90
2022-12-12T04:32:16.704Z,85.50
2022-12-12T04:34:51.282Z,85.50
2022-12-12T04:37:22.451Z,85.80
2022-12-12T04:39:51.214Z,86.10
2022-12-12T04:42:22.439Z,86.30
2022-12-12T04:44:52.319Z,86.30
2022-12-12T04:47:20.492Z,86.20
2022-12-12T04:49:49.976Z,86.50
2022-12-12T04:52:20.131Z,86.60
2022-12-12T04:55:03.052Z,86.90
2022-12-12T04:57:35.142Z,87.10
2022-12-12T05:00:01.920Z,86.90
2022-12-12T05:02:43.895Z,87.20
2022-12-12T05:05:21.881Z,87.20
2022-12-12T05:08:11.146Z,87.20
2022-12-12T05:10:46.289Z,87.20
2022-12-12T05:13:40.928Z,86.90
2022-12-12T05:16:25.609Z,86.80
2022-12-12T05:18:52.408Z,86.90
2022-12-12T05:21:19.146Z,87.00
2022-12-12T05:23:46.084Z,87.30
2022-12-12T05:26:28.081Z,87.40
2022-12-12T05:28:55.191Z,87.40
2022-12-12T05:31:22.609Z,87.50
2022-12-12T05:33:50.498Z,87.90
2022-12-12T05:36:17.504Z,87.90
2022-12-12T05:38:44.270Z,87.80
2022-12-12T05:41:11.613Z,87.30
2022-12-12T05:43:38.624Z,86.50
2022-12-12T05:46:06.540Z,86.70
2022-12-12T05:48:34.141Z,87.20
2022-12-12T05:51:02.581Z,87.70
2022-12-12T05:53:30.617Z,87.40
2022-12-12T05:55:57.396Z,87.60
2022-12-12T05:58:24.146Z,88.30
2022-12-12T06:00:51.808Z,87.40
2022-12-12T06:03:19.298Z,87.80
2022-12-12T06:05:46.297Z,87.60
2022-12-12T06:08:13.996Z,87.40
2022-12-12T06:10:40.763Z,87.30
2022-12-12T06:13:07.536Z,87.00
2022-12-12T06:15:34.419Z,87.00
2022-12-12T06:18:01.225Z,86.90
2022-12-12T06:20:30.422Z,86.70
2022-12-12T06:22:57.245Z,86.80
2022-12-12T06:25:24.234Z,86.50
2022-12-12T06:27:51.308Z,86.90
2022-12-12T06:30:18.136Z,87.40
2022-12-12T06:32:45.103Z,87.70
2022-12-12T06:35:15.253Z,87.80
2022-12-12T06:37:42.543Z,87.90
2022-12-12T06:40:09.929Z,88.40
2022-12-12T06:42:36.646Z,88.30
2022-12-12T06:45:04.150Z,88.40
2022-12-12T06:47:32.122Z,89.10
2022-12-12T06:49:58.926Z,89.00
2022-12-12T06:52:25.737Z,88.80
2022-12-12T06:54:52.600Z,88.50
2022-12-12T06:57:19.315Z,88.60
2022-12-12T06:59:46.126Z,88.70
2022-12-12T07:02:12.955Z,88.70
2022-12-12T07:04:40.022Z,88.70
2022-12-12T07:07:06.896Z,88.50
2022-12-12T07:09:34.097Z,88.60
2022-12-12T07:12:01.080Z,88.90
2022-12-12T07:14:27.915Z,88.90
2022-12-12T07:16:54.974Z,88.90
2022-12-12T07:19:22.720Z,89.20
2022-12-12T07:21:49.714Z,89.10
2022-12-12T07:24:18.021Z,88.50
2022-12-12T07:26:45.138Z,88.50
2022-12-12T07:29:12.375Z,88.70
2022-12-12T07:31:39.389Z,89.00
2022-12-12T07:34:06.280Z,89.30
2022-12-12T07:36:33.331Z,89.00
2022-12-12T07:39:00.176Z,89.00
2022-12-12T07:41:27.149Z,89.10
2022-12-12T07:43:53.922Z,89.10
2022-12-12T07:46:23.551Z,88.90
2022-12-12T07:48:51.798Z,89.10
2022-12-12T07:51:19.590Z,89.10
2022-12-12T07:53:46.798Z,88.80
2022-12-12T07:56:15.570Z,88.60
2022-12-12T07:58:42.767Z,88.80
2022-12-12T08:01:21.918Z,88.90
2022-12-12T08:03:50.761Z,88.90
2022-12-12T08:06:19.346Z,89.00
2022-12-12T08:08:47.464Z,89.20
2022-12-12T08:11:17.050Z,89.10
2022-12-12T08:13:44.284Z,89.10
2022-12-12T08:16:21.485Z,89.10
2022-12-12T08:18:49.733Z,88.90
2022-12-12T08:21:23.239Z,89.10
2022-12-12T08:23:55.336Z,88.80
2022-12-12T08:26:22.743Z,88.20
2022-12-12T08:28:49.585Z,88.50
2022-12-12T08:31:17.632Z,88.50
2022-12-12T08:33:45.341Z,88.30
2022-12-12T08:36:21.081Z,87.90
2022-12-12T08:38:48.253Z,88.00
2022-12-12T08:41:14.998Z,87.90
2022-12-12T08:43:42.712Z,87.70
2022-12-12T08:46:16.788Z,87.70
2022-12-12T08:48:44.828Z,87.50
2022-12-12T08:51:11.878Z,87.20
2022-12-12T08:53:38.893Z,87.00
2022-12-12T08:56:07.213Z,86.70
2022-12-12T08:58:34.008Z,87.10
2022-12-12T09:01:01.332Z,87.00
2022-12-12T09:03:29.774Z,86.80
2022-12-12T09:05:57.047Z,86.70
2022-12-12T09:08:24.415Z,85.80
2022-12-12T09:10:51.361Z,85.80
2022-12-12T09:13:18.276Z,86.00
2022-12-12T09:15:45.248Z,85.80
2022-12-12T09:18:12.297Z,85.80
2022-12-12T09:20:39.530Z,86.10
2022-12-12T09:23:06.340Z,86.10
2022-12-12T09:25:33.183Z,85.50
2022-12-12T09:28:00.132Z,85.40
2022-12-12T09:30:27.625Z,85.00
2022-12-12T09:32:54.363Z,84.40
2022-12-12T09:35:21.264Z,83.60
2022-12-12T09:37:48.262Z,82.80
2022-12-12T09:40:24.929Z,82.50
2022-12-12T09:42:52.130Z,81.50
2022-12-12T09:45:20.342Z,81.10
2022-12-12T09:47:50.657Z,81.10
2022-12-12T09:50:29.776Z,80.40
2022-12-12T09:53:02.932Z,80.80
2022-12-12T09:56:00.670Z,80.40
2022-12-12T09:58:39.729Z,80.00
2022-12-12T10:01:51.481Z,79.00
2022-12-12T10:04:33.501Z,78.20
2022-12-12T10:07:10.180Z,78.90
2022-12-12T10:10:01.336Z,77.90
2022-12-12T10:12:29.390Z,78.40
2022-12-12T10:15:03.166Z,78.20
2022-12-12T10:17:39.114Z,76.90
2022-12-12T10:20:15.736Z,75.60
2022-12-12T10:22:59.202Z,75.40
2022-12-12T10:25:35.096Z,75.40
2022-12-12T10:28:11.270Z,73.40
2022-12-12T10:31:12.380Z,72.40
2022-12-12T10:34:16.574Z,71.80
2022-12-12T10:37:18.279Z,71.30
2022-12-12T10:40:04.820Z,72.50
2022-12-12T10:43:10.342Z,71.30
2022-12-12T10:46:25.124Z,71.50
2022-12-12T10:48:52.248Z,71.90
2022-12-12T10:51:23.837Z,70.30
2022-12-12T10:53:51.093Z,71.60
2022-12-12T10:56:22.427Z,70.90
2022-12-12T10:58:55.513Z,69.80
2022-12-12T11:04:22.676Z,67.60
2022-12-12T11:06:56.248Z,65.00
2022-12-12T11:09:28.930Z,65.00
2022-12-12T11:12:15.152Z,64.70
2022-12-12T11:15:06.817Z,64.30
2022-12-12T11:17:34.805Z,63.40
2022-12-12T11:20:05.995Z,61.30
2022-12-12T11:22:33.464Z,62.10
2022-12-12T11:25:00.720Z,62.60
2022-12-12T11:27:35.260Z,63.00
2022-12-12T11:30:08.024Z,60.90
2022-12-12T11:32:40.929Z,61.30
2022-12-12T11:35:23.384Z,59.70
2022-12-12T11:37:53.999Z,60.40
2022-12-12T11:40:31.819Z,59.50
2022-12-12T11:43:19.404Z,58.80
2022-12-12T11:46:26.644Z,58.80
2022-12-12T11:48:53.488Z,59.10
2022-12-12T11:51:44.281Z,58.90
2022-12-12T11:54:14.114Z,57.80
2022-12-12T11:57:02.377Z,57.10
2022-12-12T12:00:03.940Z,58.40
2022-12-12T12:03:02.577Z,59.10
2022-12-12T12:05:55.652Z,57.00
2022-12-12T12:08:40.066Z,55.70
2022-12-12T12:11:20.404Z,55.10
2022-12-12T12:14:24.949Z,54.20
2022-12-12T12:17:03.168Z,53.50
2022-12-12T12:19:43.670Z,52.70
2022-12-12T12:22:39.045Z,54.20
2022-12-12T12:25:27.978Z,54.10
2022-12-12T12:28:16.323Z,54.60
2022-12-12T12:30:49.267Z,52.60
2022-12-12T12:33:52.483Z,51.60
2022-12-12T12:36:27.008Z,52.10
2022-12-12T12:39:02.280Z,52.40
2022-12-12T12:41:42.336Z,49.60
2022-12-12T12:44:16.804Z,53.70
2022-12-12T12:46:54.039Z,54.50
2022-12-12T12:49:39.634Z,56.10
2022-12-12T12:52:11.686Z,56.80
2022-12-12T12:54:45.632Z,59.50
2022-12-12T12:57:21.918Z,60.90
2022-12-12T12:59:52.642Z,61.70
2022-12-12T13:02:27.447Z,63.50
2022-12-12T13:05:19.000Z,64.60
2022-12-12T13:08:08.832Z,64.20
2022-12-12T13:10:40.130Z,62.90
2022-12-12T13:13:23.732Z,65.00
2022-12-12T13:15:53.890Z,65.80
2022-12-12T13:18:20.937Z,66.40
2022-12-12T13:20:47.708Z,66.50
2022-12-12T13:23:28.472Z,68.50
2022-12-12T13:26:12.604Z,69.20
2022-12-12T13:28:45.726Z,68.20
2022-12-12T13:31:27.838Z,68.50
2022-12-12T13:34:15.940Z,70.00
2022-12-12T13:36:47.110Z,72.70
2022-12-12T13:39:30.832Z,72.50
2022-12-12T13:42:06.361Z,71.90
2022-12-12T13:44:42.601Z,70.80
2022-12-12T13:47:22.974Z,71.00
2022-12-12T13:49:49.942Z,71.30
2022-12-12T13:52:27.543Z,72.30
2022-12-12T13:55:26.772Z,72.50
2022-12-12T13:58:05.916Z,73.40
2022-12-12T14:00:35.317Z,74.10
2022-12-12T14:03:07.634Z,74.70
2022-12-12T14:05:42.388Z,74.40
2022-12-12T14:08:12.084Z,74.50
2022-12-12T14:10:59.946Z,74.80
2022-12-12T14:13:31.550Z,74.10
2022-12-12T14:16:18.529Z,73.80
2022-12-12T14:18:51.595Z,74.60
2022-12-12T14:21:22.149Z,74.80
2022-12-12T14:23:51.748Z,76.00
2022-12-12T14:26:27.831Z,77.30
2022-12-12T14:29:16.642Z,77.30
2022-12-12T14:32:00.872Z,76.40
2022-12-12T14:34:51.782Z,76.60
2022-12-12T14:37:51.238Z,76.60
2022-12-12T14:40:23.031Z,77.30
2022-12-12T14:43:19.480Z,78.20
2022-12-12T14:45:51.277Z,78.40
2022-12-12T14:48:28.234Z,77.40
2022-12-12T14:51:01.197Z,75.00
2022-12-12T14:53:31.611Z,76.30
2022-12-12T14:56:02.783Z,77.60
2022-12-12T14:58:35.262Z,77.10
2022-12-12T15:01:06.083Z,77.70
2022-12-12T15:03:49.858Z,77.80
2022-12-12T15:06:33.882Z,78.10
2022-12-12T15:09:22.950Z,78.60
2022-12-12T15:11:50.875Z,78.90
2022-12-12T15:14:26.244Z,78.90
2022-12-12T15:17:12.212Z,78.90
2022-12-12T15:19:47.629Z,78.90
2022-12-12T15:22:24.938Z,79.10
2022-12-12T15:24:53.271Z,79.70
2022-12-12T15:27:39.991Z,79.80
2022-12-12T15:30:22.849Z,79.70
2022-12-12T15:32:53.067Z,79.70
2022-12-12T15:35:22.485Z,79.80
2022-12-12T15:37:58.983Z,80.20
2022-12-12T15:40:30.204Z,80.20
2022-12-12T15:43:00.181Z,80.40
2022-12-12T15:45:42.508Z,80.50
2022-12-12T15:48:17.865Z,80.70
2022-12-12T15:50:44.552Z,81.60
2022-12-12T15:53:19.841Z,82.00
2022-12-12T15:56:02.530Z,81.80
2022-12-12T15:58:34.624Z,81.80
2022-12-12T16:01:03.519Z,81.80
2022-12-12T16:03:30.361Z,81.60
2022-12-12T16:06:02.988Z,81.60
2022-12-12T16:08:33.442Z,81.50
2022-12-12T16:11:03.778Z,82.00
2022-12-12T16:13:41.145Z,82.00
2022-12-12T16:16:42.668Z,81.90
2022-12-12T16:19:34.477Z,81.90
2022-12-12T16:22:21.868Z,81.60
2022-12-12T16:25:09.034Z,82.10
2022-12-12T16:27:36.106Z,82.60
2022-12-12T16:30:03.581Z,82.70
2022-12-12T16:32:31.477Z,82.60
2022-12-12T16:34:58.226Z,83.00
2022-12-12T16:37:25.028Z,82.90
2022-12-12T16:39:53.566Z,83.20
2022-12-12T16:42:21.918Z,83.30
2022-12-12T16:44:49.726Z,83.00
2022-12-12T16:47:19.349Z,83.20
2022-12-12T16:49:47.074Z,83.40
2022-12-12T16:52:18.818Z,83.60
2022-12-12T16:54:52.851Z,83.80
2022-12-12T16:57:21.772Z,83.10
2022-12-12T16:59:48.940Z,83.50
2022-12-12T17:02:23.941Z,83.70
2022-12-12T17:04:51.715Z,83.90
2022-12-12T17:07:18.509Z,83.80
2022-12-12T17:09:45.350Z,84.20
2022-12-12T17:12:13.120Z,84.50
2022-12-12T17:14:40.243Z,84.90
2022-12-12T17:17:07.052Z,84.90
2022-12-12T17:19:34.396Z,85.20
2022-12-12T17:22:01.602Z,84.90
2022-12-12T17:24:29.113Z,84.50
2022-12-12T17:26:56.226Z,84.80
2022-12-12T17:29:23.661Z,85.40
2022-12-12T17:31:50.607Z,85.40
2022-12-12T17:34:17.658Z,85.20
2022-12-12T17:36:44.448Z,84.90
2022-12-12T17:39:11.303Z,84.60
2022-12-12T17:41:40.672Z,85.00
2022-12-12T17:44:07.449Z,85.20
2022-12-12T17:46:34.256Z,86.30
2022-12-12T17:49:01.989Z,86.20
2022-12-12T17:51:29.703Z,86.40
2022-12-12T17:53:56.645Z,86.30
2022-12-12T17:56:25.232Z,85.80
2022-12-12T17:58:54.224Z,86.20
2022-12-12T18:01:31.356Z,86.40
2022-12-12T18:03:59.941Z,86.20
2022-12-12T18:06:27.304Z,86.20
2022-12-12T18:08:54.561Z,86.20
2022-12-12T18:11:26.661Z,86.00
2022-12-12T18:13:57.385Z,86.30
2022-12-12T18:16:24.859Z,86.40
2022-12-12T18:18:52.645Z,86.60
2022-12-12T18:21:58.657Z,86.70
2022-12-12T18:24:09.916Z,86.60
2022-12-12T18:26:37.006Z,86.30
2022-12-12T18:29:06.357Z,86.80
2022-12-12T18:31:33.960Z,86.70
2022-12-12T18:34:01.264Z,86.90
2022-12-12T18:36:29.961Z,86.90
2022-12-12T18:38:58.777Z,87.10
2022-12-12T18:41:27.277Z,87.20
2022-12-12T18:43:54.861Z,87.20
2022-12-12T18:46:24.570Z,87.40
2022-12-12T18:48:51.378Z,87.90
2022-12-12T18:51:22.307Z,87.50
2022-12-12T18:53:50.427Z,87.50
2022-12-12T18:56:24.009Z,87.20
2022-12-12T18:58:53.391Z,87.20
2022-12-12T19:01:28.681Z,87.00
2022-12-12T19:03:57.335Z,87.20
2022-12-12T19:06:31.592Z,87.00
2022-12-12T19:08:58.681Z,87.30
2022-12-12T19:11:25.526Z,87.30
2022-12-12T19:13:52.481Z,87.30
2022-12-12T19:16:20.300Z,87.20
2022-12-12T19:18:47.626Z,87.40
2022-12-12T19:21:20.154Z,87.80
2022-12-12T19:23:47.807Z,87.20
2022-12-12T19:26:26.658Z,87.30
2022-12-12T19:29:03.421Z,87.50
2022-12-12T19:31:33.399Z,87.30
2022-12-12T19:34:02.845Z,87.50
2022-12-12T19:36:30.307Z,87.60
2022-12-12T19:38:58.685Z,87.40
2022-12-12T19:41:26.258Z,87.80
2022-12-12T19:43:54.125Z,87.70
2022-12-12T19:46:26.054Z,87.70
2022-12-12T19:48:57.882Z,87.90
2022-12-12T19:51:27.039Z,87.50
2022-12-12T19:53:56.664Z,87.50
2022-12-12T19:56:33.507Z,87.60
2022-12-12T19:59:01.274Z,87.90
2022-12-12T20:01:31.436Z,87.60
2022-12-12T20:04:05.343Z,87.50
2022-12-12T20:06:41.000Z,87.70
2022-12-12T20:09:09.186Z,87.80
2022-12-12T20:11:37.268Z,88.00
2022-12-12T20:14:04.111Z,88.00
2022-12-12T20:16:30.862Z,87.90
2022-12-12T20:18:58.128Z,88.00
2022-12-12T20:21:59.922Z,88.40
2022-12-12T20:24:17.345Z,88.30
2022-12-12T20:26:45.512Z,87.90
2022-12-12T20:29:14.333Z,87.90
2022-12-12T20:31:45.280Z,87.60
2022-12-12T20:34:13.673Z,87.90
2022-12-12T20:36:41.269Z,88.00
2022-12-12T20:39:12.022Z,87.50
2022-12-12T20:41:40.471Z,87.60
2022-12-12T20:44:08.808Z,87.80
2022-12-12T20:46:38.163Z,87.80
2022-12-12T20:49:09.331Z,87.60
2022-12-12T20:54:24.715Z,87.80
2022-12-12T20:56:53.304Z,87.60
2022-12-12T20:59:20.139Z,87.90
2022-12-12T21:01:47.462Z,87.80
2022-12-12T21:04:15.074Z,87.90
2022-12-12T21:06:47.833Z,87.50
2022-12-12T21:09:20.929Z,87.70
2022-12-12T21:11:52.185Z,87.90
2022-12-12T21:14:19.345Z,87.20
2022-12-12T21:16:46.334Z,87.20
2022-12-12T21:19:14.211Z,87.70
2022-12-12T21:21:43.141Z,88.00
2022-12-12T21:24:14.444Z,88.10
2022-12-12T21:26:41.445Z,88.00
2022-12-12T21:29:08.310Z,88.00
2022-12-12T21:31:37.494Z,88.00
2022-12-12T21:34:07.627Z,87.80
2022-12-12T21:36:34.564Z,87.90
2022-12-12T21:39:06.177Z,88.10
2022-12-12T21:41:34.856Z,88.10
2022-12-12T21:44:01.692Z,88.00
2022-12-12T21:46:29.944Z,87.80
2022-12-12T21:49:16.515Z,87.90
2022-12-12T21:51:44.186Z,87.80
2022-12-12T21:54:14.402Z,87.60
2022-12-12T21:56:42.227Z,87.50
2022-12-12T21:59:10.367Z,87.30
2022-12-12T22:01:37.244Z,87.50
2022-12-12T22:04:04.339Z,87.80
2022-12-12T22:06:33.409Z,87.50
2022-12-12T22:09:01.387Z,87.10
2022-12-12T22:11:40.578Z,87.20
2022-12-12T22:14:17.573Z,87.20
2022-12-12T22:16:44.702Z,87.00
2022-12-12T22:19:14.414Z,87.00
2022-12-12T22:21:41.406Z,87.10
2022-12-12T22:24:08.468Z,87.60
2022-12-12T22:26:38.111Z,87.50
2022-12-12T22:29:07.768Z,87.10
2022-12-12T22:31:37.469Z,87.10
2022-12-12T22:34:11.773Z,87.20
2022-12-12T22:36:39.712Z,87.20
2022-12-12T22:39:08.548Z,87.20
2022-12-12T22:41:35.273Z,87.40
2022-12-12T22:44:04.422Z,87.10
2022-12-12T22:46:31.529Z,87.20
2022-12-12T22:49:00.436Z,87.10
2022-12-12T22:51:32.749Z,86.90
2022-12-12T22:54:02.406Z,87.10
2022-12-12T22:56:30.798Z,87.20
2022-12-12T22:58:57.944Z,87.20
2022-12-12T23:01:25.045Z,87.40
2022-12-12T23:03:52.581Z,87.40
2022-12-12T23:06:29.909Z,87.40
2022-12-12T23:09:01.788Z,87.30
2022-12-12T23:11:30.520Z,87.40
2022-12-12T23:14:19.381Z,87.10
2022-12-12T23:16:46.350Z,87.50
2022-12-12T23:19:15.612Z,87.70
2022-12-12T23:21:42.734Z,87.50
2022-12-12T23:24:09.690Z,87.40
2022-12-12T23:26:37.082Z,87.70
2022-12-12T23:29:08.028Z,87.90
2022-12-12T23:31:37.326Z,87.40
2022-12-12T23:34:12.876Z,87.60
2022-12-12T23:36:40.107Z,87.70
2022-12-12T23:39:08.176Z,87.50
2022-12-12T23:41:36.548Z,87.40
2022-12-12T23:44:04.042Z,87.50
2022-12-12T23:46:32.182Z,87.40
2022-12-12T23:49:01.450Z,87.40
2022-12-12T23:51:31.041Z,87.20
2022-12-12T23:53:59.821Z,87.00
2022-12-12T23:56:27.160Z,87.30
2022-12-12T23:58:55.429Z,87.50
